sensor_id;sensor_type;location;lat;lon;timestamp;P1;durP1;ratioP1;P2;durP2;ratioP2
70929;SDS011;58588;48.102;19.682;2022-09-04T00:01:44;7.32;;;3.63;;
70929;SDS011;58588;48.102;19.682;2022-09-04T00:04:55;8.00;;;3.70;;
70929;SDS011;58588;48.102;19.682;2022-09-04T00:08:11;8.18;;;3.25;;
70929;SDS011;58588;48.102;19.682;2022-09-04T00:11:33;7.63;;;2.93;;
70929;SDS011;58588;48.102;19.682;2022-09-04T00:14:44;6.80;;;3.15;;
70929;SDS011;58588;48.102;19.682;2022-09-04T00:17:53;9.13;;;3.40;;
70929;SDS011;58588;48.102;19.682;2022-09-04T00:21:05;8.32;;;3.22;;
70929;SDS011;58588;48.102;19.682;2022-09-04T00:24:13;7.70;;;3.13;;
70929;SDS011;58588;48.102;19.682;2022-09-04T00:27:18;8.67;;;2.97;;
70929;SDS011;58588;48.102;19.682;2022-09-04T00:30:24;6.15;;;3.08;;
70929;SDS011;58588;48.102;19.682;2022-09-04T00:33:29;6.57;;;2.70;;
70929;SDS011;58588;48.102;19.682;2022-09-04T00:36:42;6.90;;;3.05;;
70929;SDS011;58588;48.102;19.682;2022-09-04T00:39:52;6.10;;;2.70;;
70929;SDS011;58588;48.102;19.682;2022-09-04T00:43:00;7.00;;;2.93;;
70929;SDS011;58588;48.102;19.682;2022-09-04T00:49:52;6.10;;;2.70;;
70929;SDS011;58588;48.102;19.682;2022-09-04T00:53:17;7.00;;;2.55;;
70929;SDS011;58588;48.102;19.682;2022-09-04T01:00:07;7.10;;;2.50;;
70929;SDS011;58588;48.102;19.682;2022-09-04T01:03:18;6.13;;;2.75;;
70929;SDS011;58588;48.102;19.682;2022-09-04T01:06:37;6.93;;;2.83;;
70929;SDS011;58588;48.102;19.682;2022-09-04T01:09:55;5.90;;;2.40;;
70929;SDS011;58588;48.102;19.682;2022-09-04T01:13:27;6.40;;;2.83;;
70929;SDS011;58588;48.102;19.682;2022-09-04T01:16:38;6.13;;;2.50;;
70929;SDS011;58588;48.102;19.682;2022-09-04T01:19:49;6.35;;;2.58;;
70929;SDS011;58588;48.102;19.682;2022-09-04T01:23:06;6.40;;;2.70;;
70929;SDS011;58588;48.102;19.682;2022-09-04T01:26:22;6.45;;;2.40;;
70929;SDS011;58588;48.102;19.682;2022-09-04T01:29:30;7.05;;;2.53;;
70929;SDS011;58588;48.102;19.682;2022-09-04T01:32:43;6.33;;;2.50;;
70929;SDS011;58588;48.102;19.682;2022-09-04T01:35:54;5.88;;;2.58;;
70929;SDS011;58588;48.102;19.682;2022-09-04T01:39:04;6.40;;;2.70;;
70929;SDS011;58588;48.102;19.682;2022-09-04T01:42:07;6.68;;;2.78;;
70929;SDS011;58588;48.102;19.682;2022-09-04T01:45:23;7.90;;;2.78;;
70929;SDS011;58588;48.102;19.682;2022-09-04T01:48:35;6.97;;;2.87;;
70929;SDS011;58588;48.102;19.682;2022-09-04T01:51:44;6.00;;;2.78;;
70929;SDS011;58588;48.102;19.682;2022-09-04T01:54:52;10.10;;;2.70;;
70929;SDS011;58588;48.102;19.682;2022-09-04T01:58:05;6.68;;;2.70;;
70929;SDS011;58588;48.102;19.682;2022-09-04T02:01:16;8.63;;;2.33;;
70929;SDS011;58588;48.102;19.682;2022-09-04T02:04:27;6.53;;;2.13;;
70929;SDS011;58588;48.102;19.682;2022-09-04T02:07:31;6.30;;;2.75;;
70929;SDS011;58588;48.102;19.682;2022-09-04T02:10:37;7.38;;;2.60;;
70929;SDS011;58588;48.102;19.682;2022-09-04T02:13:55;6.82;;;2.72;;
70929;SDS011;58588;48.102;19.682;2022-09-04T02:17:07;5.97;;;2.53;;
70929;SDS011;58588;48.102;19.682;2022-09-04T02:20:15;6.90;;;2.30;;
70929;SDS011;58588;48.102;19.682;2022-09-04T02:23:27;7.13;;;2.70;;
70929;SDS011;58588;48.102;19.682;2022-09-04T02:26:35;6.88;;;2.80;;
70929;SDS011;58588;48.102;19.682;2022-09-04T02:29:45;7.53;;;2.80;;
70929;SDS011;58588;48.102;19.682;2022-09-04T02:32:54;6.43;;;2.78;;
70929;SDS011;58588;48.102;19.682;2022-09-04T02:36:06;6.77;;;2.57;;
70929;SDS011;58588;48.102;19.682;2022-09-04T02:39:20;7.03;;;2.50;;
70929;SDS011;58588;48.102;19.682;2022-09-04T02:42:35;6.68;;;2.65;;
70929;SDS011;58588;48.102;19.682;2022-09-04T02:45:46;7.47;;;2.90;;
70929;SDS011;58588;48.102;19.682;2022-09-04T02:48:59;6.97;;;2.78;;
70929;SDS011;58588;48.102;19.682;2022-09-04T02:52:12;6.10;;;2.60;;
70929;SDS011;58588;48.102;19.682;2022-09-04T02:55:29;9.45;;;2.90;;
70929;SDS011;58588;48.102;19.682;2022-09-04T02:58:49;10.52;;;2.80;;
70929;SDS011;58588;48.102;19.682;2022-09-04T03:02:04;9.00;;;2.72;;
70929;SDS011;58588;48.102;19.682;2022-09-04T03:05:12;7.13;;;2.50;;
70929;SDS011;58588;48.102;19.682;2022-09-04T03:08:20;7.93;;;2.70;;
70929;SDS011;58588;48.102;19.682;2022-09-04T03:11:27;6.80;;;2.88;;
70929;SDS011;58588;48.102;19.682;2022-09-04T03:14:34;5.75;;;2.50;;
70929;SDS011;58588;48.102;19.682;2022-09-04T03:17:46;6.18;;;2.40;;
70929;SDS011;58588;48.102;19.682;2022-09-04T03:20:52;5.63;;;2.28;;
70929;SDS011;58588;48.102;19.682;2022-09-04T03:23:58;6.97;;;2.20;;
70929;SDS011;58588;48.102;19.682;2022-09-04T03:27:06;5.85;;;1.95;;
70929;SDS011;58588;48.102;19.682;2022-09-04T03:30:11;5.07;;;2.00;;
70929;SDS011;58588;48.102;19.682;2022-09-04T03:33:17;6.55;;;2.08;;
70929;SDS011;58588;48.102;19.682;2022-09-04T03:36:31;7.25;;;2.17;;
70929;SDS011;58588;48.102;19.682;2022-09-04T03:39:47;6.97;;;1.83;;
70929;SDS011;58588;48.102;19.682;2022-09-04T03:43:00;5.40;;;1.92;;
70929;SDS011;58588;48.102;19.682;2022-09-04T03:46:19;5.28;;;1.90;;
70929;SDS011;58588;48.102;19.682;2022-09-04T03:49:35;5.47;;;1.80;;
70929;SDS011;58588;48.102;19.682;2022-09-04T03:52:50;5.00;;;1.80;;
70929;SDS011;58588;48.102;19.682;2022-09-04T03:56:12;7.17;;;2.50;;
70929;SDS011;58588;48.102;19.682;2022-09-04T03:59:31;6.90;;;2.00;;
70929;SDS011;58588;48.102;19.682;2022-09-04T04:02:59;6.68;;;1.90;;
70929;SDS011;58588;48.102;19.682;2022-09-04T04:06:12;4.88;;;1.60;;
70929;SDS011;58588;48.102;19.682;2022-09-04T04:09:35;5.93;;;2.17;;
70929;SDS011;58588;48.102;19.682;2022-09-04T04:12:52;5.30;;;1.90;;
70929;SDS011;58588;48.102;19.682;2022-09-04T04:16:16;5.00;;;1.70;;
70929;SDS011;58588;48.102;19.682;2022-09-04T04:19:34;5.50;;;1.80;;
70929;SDS011;58588;48.102;19.682;2022-09-04T04:22:58;5.68;;;1.80;;
70929;SDS011;58588;48.102;19.682;2022-09-04T04:26:18;6.05;;;2.00;;
70929;SDS011;58588;48.102;19.682;2022-09-04T04:33:08;5.32;;;1.80;;
70929;SDS011;58588;48.102;19.682;2022-09-04T04:36:29;6.28;;;2.10;;
70929;SDS011;58588;48.102;19.682;2022-09-04T04:39:44;5.50;;;1.98;;
70929;SDS011;58588;48.102;19.682;2022-09-04T04:42:54;8.95;;;2.10;;
70929;SDS011;58588;48.102;19.682;2022-09-04T04:46:02;5.70;;;2.23;;
70929;SDS011;58588;48.102;19.682;2022-09-04T04:49:20;6.60;;;2.30;;
70929;SDS011;58588;48.102;19.682;2022-09-04T04:52:37;10.68;;;2.50;;
70929;SDS011;58588;48.102;19.682;2022-09-04T04:55:54;5.70;;;2.20;;
70929;SDS011;58588;48.102;19.682;2022-09-04T04:59:06;6.28;;;2.08;;
70929;SDS011;58588;48.102;19.682;2022-09-04T05:02:20;8.07;;;2.93;;
70929;SDS011;58588;48.102;19.682;2022-09-04T05:05:42;7.22;;;2.13;;
70929;SDS011;58588;48.102;19.682;2022-09-04T05:08:54;7.00;;;2.10;;
70929;SDS011;58588;48.102;19.682;2022-09-04T05:12:05;7.97;;;2.20;;
70929;SDS011;58588;48.102;19.682;2022-09-04T05:15:12;6.68;;;2.00;;
70929;SDS011;58588;48.102;19.682;2022-09-04T05:18:21;8.57;;;2.27;;
70929;SDS011;58588;48.102;19.682;2022-09-04T05:21:32;5.57;;;1.95;;
70929;SDS011;58588;48.102;19.682;2022-09-04T05:24:43;6.43;;;1.88;;
70929;SDS011;58588;48.102;19.682;2022-09-04T05:27:59;5.65;;;2.20;;
70929;SDS011;58588;48.102;19.682;2022-09-04T05:31:11;5.93;;;2.10;;
70929;SDS011;58588;48.102;19.682;2022-09-04T05:34:24;5.43;;;1.97;;
70929;SDS011;58588;48.102;19.682;2022-09-04T05:37:35;5.30;;;1.90;;
70929;SDS011;58588;48.102;19.682;2022-09-04T05:40:48;11.77;;;1.98;;
70929;SDS011;58588;48.102;19.682;2022-09-04T05:44:13;5.53;;;2.05;;
70929;SDS011;58588;48.102;19.682;2022-09-04T05:47:26;6.00;;;1.73;;
70929;SDS011;58588;48.102;19.682;2022-09-04T05:57:44;5.80;;;2.20;;
70929;SDS011;58588;48.102;19.682;2022-09-04T06:01:07;10.50;;;2.05;;
70929;SDS011;58588;48.102;19.682;2022-09-04T06:04:36;6.47;;;1.95;;
70929;SDS011;58588;48.102;19.682;2022-09-04T06:07:56;5.43;;;2.00;;
70929;SDS011;58588;48.102;19.682;2022-09-04T06:11:22;5.68;;;2.03;;
70929;SDS011;58588;48.102;19.682;2022-09-04T06:14:44;5.45;;;2.00;;
70929;SDS011;58588;48.102;19.682;2022-09-04T06:18:11;9.35;;;1.88;;
70929;SDS011;58588;48.102;19.682;2022-09-04T06:21:33;6.25;;;2.17;;
70929;SDS011;58588;48.102;19.682;2022-09-04T06:24:53;5.67;;;2.00;;
70929;SDS011;58588;48.102;19.682;2022-09-04T06:28:13;5.25;;;1.90;;
70929;SDS011;58588;48.102;19.682;2022-09-04T06:35:18;5.50;;;2.03;;
70929;SDS011;58588;48.102;19.682;2022-09-04T06:38:35;5.70;;;2.00;;
70929;SDS011;58588;48.102;19.682;2022-09-04T06:41:52;6.13;;;1.97;;
70929;SDS011;58588;48.102;19.682;2022-09-04T06:45:13;5.47;;;2.10;;
70929;SDS011;58588;48.102;19.682;2022-09-04T06:48:26;6.00;;;2.00;;
70929;SDS011;58588;48.102;19.682;2022-09-04T06:51:44;6.53;;;2.40;;
70929;SDS011;58588;48.102;19.682;2022-09-04T06:54:55;5.95;;;2.22;;
70929;SDS011;58588;48.102;19.682;2022-09-04T06:58:06;7.27;;;2.67;;
70929;SDS011;58588;48.102;19.682;2022-09-04T07:01:21;8.57;;;2.70;;
70929;SDS011;58588;48.102;19.682;2022-09-04T07:04:35;6.43;;;2.45;;
70929;SDS011;58588;48.102;19.682;2022-09-04T07:07:50;5.75;;;2.28;;
70929;SDS011;58588;48.102;19.682;2022-09-04T07:11:02;7.13;;;2.60;;
70929;SDS011;58588;48.102;19.682;2022-09-04T07:14:18;7.43;;;2.40;;
70929;SDS011;58588;48.102;19.682;2022-09-04T07:17:32;5.97;;;2.20;;
70929;SDS011;58588;48.102;19.682;2022-09-04T07:20:40;6.03;;;2.40;;
70929;SDS011;58588;48.102;19.682;2022-09-04T07:23:51;7.88;;;2.13;;
70929;SDS011;58588;48.102;19.682;2022-09-04T07:27:03;6.10;;;2.30;;
70929;SDS011;58588;48.102;19.682;2022-09-04T07:30:11;7.90;;;2.10;;
70929;SDS011;58588;48.102;19.682;2022-09-04T07:33:17;6.25;;;1.98;;
70929;SDS011;58588;48.102;19.682;2022-09-04T07:36:26;5.72;;;2.15;;
70929;SDS011;58588;48.102;19.682;2022-09-04T07:39:38;6.72;;;2.03;;
70929;SDS011;58588;48.102;19.682;2022-09-04T07:42:49;5.40;;;1.77;;
70929;SDS011;58588;48.102;19.682;2022-09-04T07:45:56;6.90;;;2.00;;
70929;SDS011;58588;48.102;19.682;2022-09-04T07:49:07;6.82;;;2.00;;
70929;SDS011;58588;48.102;19.682;2022-09-04T07:52:19;7.40;;;1.90;;
70929;SDS011;58588;48.102;19.682;2022-09-04T07:55:37;5.15;;;1.88;;
70929;SDS011;58588;48.102;19.682;2022-09-04T07:58:53;7.70;;;1.85;;
70929;SDS011;58588;48.102;19.682;2022-09-04T08:02:22;6.93;;;1.70;;
70929;SDS011;58588;48.102;19.682;2022-09-04T08:05:38;7.70;;;1.75;;
70929;SDS011;58588;48.102;19.682;2022-09-04T08:08:49;4.95;;;1.60;;
70929;SDS011;58588;48.102;19.682;2022-09-04T08:12:15;6.85;;;1.80;;
70929;SDS011;58588;48.102;19.682;2022-09-04T08:15:39;5.25;;;1.50;;
70929;SDS011;58588;48.102;19.682;2022-09-04T08:18:49;4.80;;;1.57;;
70929;SDS011;58588;48.102;19.682;2022-09-04T08:22:00;4.68;;;1.60;;
70929;SDS011;58588;48.102;19.682;2022-09-04T08:25:13;6.97;;;1.80;;
70929;SDS011;58588;48.102;19.682;2022-09-04T08:28:25;9.45;;;2.10;;
70929;SDS011;58588;48.102;19.682;2022-09-04T08:31:39;5.30;;;1.80;;
70929;SDS011;58588;48.102;19.682;2022-09-04T08:34:50;5.37;;;1.97;;
70929;SDS011;58588;48.102;19.682;2022-09-04T08:38:16;5.10;;;1.77;;
70929;SDS011;58588;48.102;19.682;2022-09-04T08:45:37;7.28;;;1.75;;
70929;SDS011;58588;48.102;19.682;2022-09-04T08:56:34;6.45;;;1.60;;
70929;SDS011;58588;48.102;19.682;2022-09-04T08:59:50;7.57;;;2.13;;
70929;SDS011;58588;48.102;19.682;2022-09-04T09:03:15;13.77;;;2.22;;
70929;SDS011;58588;48.102;19.682;2022-09-04T09:06:40;7.50;;;1.90;;
70929;SDS011;58588;48.102;19.682;2022-09-04T09:10:06;5.87;;;1.90;;
70929;SDS011;58588;48.102;19.682;2022-09-04T09:17:10;7.85;;;2.45;;
70929;SDS011;58588;48.102;19.682;2022-09-04T09:20:21;5.75;;;1.98;;
70929;SDS011;58588;48.102;19.682;2022-09-04T09:23:32;7.60;;;2.67;;
70929;SDS011;58588;48.102;19.682;2022-09-04T09:26:42;6.03;;;2.63;;
70929;SDS011;58588;48.102;19.682;2022-09-04T09:30:04;6.20;;;2.70;;
70929;SDS011;58588;48.102;19.682;2022-09-04T09:36:55;6.28;;;2.35;;
70929;SDS011;58588;48.102;19.682;2022-09-04T09:40:24;8.60;;;3.05;;
70929;SDS011;58588;48.102;19.682;2022-09-04T09:43:50;6.03;;;2.43;;
70929;SDS011;58588;48.102;19.682;2022-09-04T09:47:20;5.88;;;2.30;;
70929;SDS011;58588;48.102;19.682;2022-09-04T09:54:34;5.90;;;2.10;;
70929;SDS011;58588;48.102;19.682;2022-09-04T10:01:49;6.90;;;2.60;;
70929;SDS011;58588;48.102;19.682;2022-09-04T10:05:21;6.22;;;2.13;;
70929;SDS011;58588;48.102;19.682;2022-09-04T10:08:47;6.43;;;2.15;;
70929;SDS011;58588;48.102;19.682;2022-09-04T10:19:46;6.73;;;2.47;;
70929;SDS011;58588;48.102;19.682;2022-09-04T10:23:18;6.05;;;2.22;;
70929;SDS011;58588;48.102;19.682;2022-09-04T10:30:15;5.85;;;2.72;;
70929;SDS011;58588;48.102;19.682;2022-09-04T10:33:31;6.90;;;2.40;;
70929;SDS011;58588;48.102;19.682;2022-09-04T10:36:48;5.97;;;2.30;;
70929;SDS011;58588;48.102;19.682;2022-09-04T10:40:04;7.00;;;2.70;;
70929;SDS011;58588;48.102;19.682;2022-09-04T10:43:40;5.57;;;2.38;;
70929;SDS011;58588;48.102;19.682;2022-09-04T10:47:08;7.07;;;3.33;;
70929;SDS011;58588;48.102;19.682;2022-09-04T10:50:24;7.05;;;2.70;;
70929;SDS011;58588;48.102;19.682;2022-09-04T10:53:41;11.07;;;2.50;;
70929;SDS011;58588;48.102;19.682;2022-09-04T10:56:57;5.63;;;2.35;;
70929;SDS011;58588;48.102;19.682;2022-09-04T11:00:06;5.75;;;2.72;;
70929;SDS011;58588;48.102;19.682;2022-09-04T11:03:15;7.22;;;2.67;;
70929;SDS011;58588;48.102;19.682;2022-09-04T11:06:34;6.47;;;2.55;;
70929;SDS011;58588;48.102;19.682;2022-09-04T11:10:00;6.13;;;2.70;;
70929;SDS011;58588;48.102;19.682;2022-09-04T11:17:13;8.10;;;2.38;;
70929;SDS011;58588;48.102;19.682;2022-09-04T11:31:43;5.95;;;2.90;;
70929;SDS011;58588;48.102;19.682;2022-09-04T11:35:06;8.18;;;2.85;;
70929;SDS011;58588;48.102;19.682;2022-09-04T11:38:33;13.82;;;3.30;;
70929;SDS011;58588;48.102;19.682;2022-09-04T11:42:11;6.63;;;3.13;;
70929;SDS011;58588;48.102;19.682;2022-09-04T11:52:59;7.95;;;3.30;;
70929;SDS011;58588;48.102;19.682;2022-09-04T11:56:24;7.45;;;3.00;;
70929;SDS011;58588;48.102;19.682;2022-09-04T11:59:50;6.50;;;3.00;;
70929;SDS011;58588;48.102;19.682;2022-09-04T12:03:09;5.93;;;2.70;;
70929;SDS011;58588;48.102;19.682;2022-09-04T12:06:40;6.20;;;3.00;;
70929;SDS011;58588;48.102;19.682;2022-09-04T12:13:43;7.20;;;3.42;;
70929;SDS011;58588;48.102;19.682;2022-09-04T12:17:22;8.23;;;3.22;;
70929;SDS011;58588;48.102;19.682;2022-09-04T12:24:30;13.13;;;3.70;;
70929;SDS011;58588;48.102;19.682;2022-09-04T12:31:51;7.05;;;3.42;;
70929;SDS011;58588;48.102;19.682;2022-09-04T12:42:42;8.88;;;3.10;;
70929;SDS011;58588;48.102;19.682;2022-09-04T12:45:53;6.53;;;2.88;;
70929;SDS011;58588;48.102;19.682;2022-09-04T12:49:17;7.60;;;2.80;;
70929;SDS011;58588;48.102;19.682;2022-09-04T12:52:39;11.40;;;3.53;;
70929;SDS011;58588;48.102;19.682;2022-09-04T12:56:01;9.40;;;2.93;;
70929;SDS011;58588;48.102;19.682;2022-09-04T12:59:16;9.38;;;3.20;;
70929;SDS011;58588;48.102;19.682;2022-09-04T13:02:35;6.88;;;3.00;;
70929;SDS011;58588;48.102;19.682;2022-09-04T13:05:55;6.13;;;2.83;;
70929;SDS011;58588;48.102;19.682;2022-09-04T13:09:09;7.25;;;3.05;;
70929;SDS011;58588;48.102;19.682;2022-09-04T13:12:23;9.90;;;2.90;;
70929;SDS011;58588;48.102;19.682;2022-09-04T13:15:33;6.45;;;2.53;;
70929;SDS011;58588;48.102;19.682;2022-09-04T13:18:49;7.97;;;2.63;;
70929;SDS011;58588;48.102;19.682;2022-09-04T13:22:06;5.90;;;2.88;;
70929;SDS011;58588;48.102;19.682;2022-09-04T13:25:21;6.95;;;2.58;;
70929;SDS011;58588;48.102;19.682;2022-09-04T13:28:37;6.77;;;2.67;;
70929;SDS011;58588;48.102;19.682;2022-09-04T13:31:57;6.53;;;2.72;;
70929;SDS011;58588;48.102;19.682;2022-09-04T13:35:16;6.85;;;2.75;;
70929;SDS011;58588;48.102;19.682;2022-09-04T13:38:47;7.43;;;2.97;;
70929;SDS011;58588;48.102;19.682;2022-09-04T13:42:18;6.03;;;2.85;;
70929;SDS011;58588;48.102;19.682;2022-09-04T13:45:45;6.83;;;2.60;;
70929;SDS011;58588;48.102;19.682;2022-09-04T13:48:51;6.57;;;2.50;;
70929;SDS011;58588;48.102;19.682;2022-09-04T13:52:01;6.95;;;2.45;;
70929;SDS011;58588;48.102;19.682;2022-09-04T13:55:08;7.82;;;2.92;;
70929;SDS011;58588;48.102;19.682;2022-09-04T13:58:17;7.78;;;2.85;;
70929;SDS011;58588;48.102;19.682;2022-09-04T14:01:22;5.90;;;2.80;;
70929;SDS011;58588;48.102;19.682;2022-09-04T14:04:29;6.20;;;2.75;;
70929;SDS011;58588;48.102;19.682;2022-09-04T14:07:38;5.68;;;2.70;;
70929;SDS011;58588;48.102;19.682;2022-09-04T14:10:54;5.63;;;2.47;;
70929;SDS011;58588;48.102;19.682;2022-09-04T14:14:16;5.72;;;2.75;;
70929;SDS011;58588;48.102;19.682;2022-09-04T14:17:39;6.07;;;2.70;;
70929;SDS011;58588;48.102;19.682;2022-09-04T14:20:51;5.93;;;2.47;;
70929;SDS011;58588;48.102;19.682;2022-09-04T14:23:58;6.22;;;2.45;;
70929;SDS011;58588;48.102;19.682;2022-09-04T14:27:08;9.30;;;2.90;;
70929;SDS011;58588;48.102;19.682;2022-09-04T14:30:19;7.70;;;2.60;;
70929;SDS011;58588;48.102;19.682;2022-09-04T14:33:25;7.17;;;2.70;;
70929;SDS011;58588;48.102;19.682;2022-09-04T14:36:36;6.72;;;2.72;;
70929;SDS011;58588;48.102;19.682;2022-09-04T14:39:55;6.53;;;2.63;;
70929;SDS011;58588;48.102;19.682;2022-09-04T14:43:03;7.38;;;2.47;;
70929;SDS011;58588;48.102;19.682;2022-09-04T14:46:18;6.13;;;2.60;;
70929;SDS011;58588;48.102;19.682;2022-09-04T14:49:29;6.23;;;2.50;;
70929;SDS011;58588;48.102;19.682;2022-09-04T14:52:37;6.43;;;2.63;;
70929;SDS011;58588;48.102;19.682;2022-09-04T14:55:41;5.32;;;2.55;;
70929;SDS011;58588;48.102;19.682;2022-09-04T14:59:15;6.07;;;2.72;;
70929;SDS011;58588;48.102;19.682;2022-09-04T15:02:22;6.85;;;2.33;;
70929;SDS011;58588;48.102;19.682;2022-09-04T15:05:34;9.83;;;2.70;;
70929;SDS011;58588;48.102;19.682;2022-09-04T15:08:46;7.32;;;2.50;;
70929;SDS011;58588;48.102;19.682;2022-09-04T15:11:49;6.13;;;2.40;;
70929;SDS011;58588;48.102;19.682;2022-09-04T15:14:57;6.75;;;2.55;;
70929;SDS011;58588;48.102;19.682;2022-09-04T15:18:11;5.13;;;2.22;;
70929;SDS011;58588;48.102;19.682;2022-09-04T15:21:26;7.53;;;2.57;;
70929;SDS011;58588;48.102;19.682;2022-09-04T15:24:32;6.05;;;2.38;;
70929;SDS011;58588;48.102;19.682;2022-09-04T15:27:41;5.90;;;2.45;;
70929;SDS011;58588;48.102;19.682;2022-09-04T15:30:56;5.50;;;2.28;;
70929;SDS011;58588;48.102;19.682;2022-09-04T15:34:05;6.05;;;2.38;;
70929;SDS011;58588;48.102;19.682;2022-09-04T15:37:12;5.80;;;2.40;;
70929;SDS011;58588;48.102;19.682;2022-09-04T15:40:23;6.75;;;2.60;;
70929;SDS011;58588;48.102;19.682;2022-09-04T15:43:30;7.45;;;2.42;;
70929;SDS011;58588;48.102;19.682;2022-09-04T15:46:40;5.72;;;2.47;;
70929;SDS011;58588;48.102;19.682;2022-09-04T15:49:47;7.38;;;2.60;;
70929;SDS011;58588;48.102;19.682;2022-09-04T15:52:59;6.50;;;2.40;;
70929;SDS011;58588;48.102;19.682;2022-09-04T15:56:28;5.90;;;2.13;;
70929;SDS011;58588;48.102;19.682;2022-09-04T15:59:39;7.70;;;2.45;;
70929;SDS011;58588;48.102;19.682;2022-09-04T16:02:49;11.43;;;2.72;;
70929;SDS011;58588;48.102;19.682;2022-09-04T16:05:58;5.53;;;2.47;;
70929;SDS011;58588;48.102;19.682;2022-09-04T16:09:10;8.90;;;2.43;;
70929;SDS011;58588;48.102;19.682;2022-09-04T16:12:22;7.43;;;2.70;;
70929;SDS011;58588;48.102;19.682;2022-09-04T16:15:27;5.63;;;2.47;;
70929;SDS011;58588;48.102;19.682;2022-09-04T16:18:38;6.15;;;2.55;;
70929;SDS011;58588;48.102;19.682;2022-09-04T16:21:49;6.00;;;2.20;;
70929;SDS011;58588;48.102;19.682;2022-09-04T16:25:06;5.47;;;2.20;;
70929;SDS011;58588;48.102;19.682;2022-09-04T16:28:12;6.30;;;2.55;;
70929;SDS011;58588;48.102;19.682;2022-09-04T16:31:21;8.25;;;2.78;;
70929;SDS011;58588;48.102;19.682;2022-09-04T16:34:30;5.82;;;2.35;;
70929;SDS011;58588;48.102;19.682;2022-09-04T16:37:37;7.43;;;2.90;;
70929;SDS011;58588;48.102;19.682;2022-09-04T16:40:46;5.40;;;2.30;;
70929;SDS011;58588;48.102;19.682;2022-09-04T16:44:13;5.70;;;2.38;;
70929;SDS011;58588;48.102;19.682;2022-09-04T16:47:21;5.57;;;2.30;;
70929;SDS011;58588;48.102;19.682;2022-09-04T16:50:32;6.45;;;2.40;;
70929;SDS011;58588;48.102;19.682;2022-09-04T16:53:43;6.32;;;2.55;;
70929;SDS011;58588;48.102;19.682;2022-09-04T16:56:53;8.87;;;2.80;;
70929;SDS011;58588;48.102;19.682;2022-09-04T17:00:04;6.45;;;2.50;;
70929;SDS011;58588;48.102;19.682;2022-09-04T17:03:16;10.70;;;3.15;;
70929;SDS011;58588;48.102;19.682;2022-09-04T17:06:23;9.13;;;2.70;;
70929;SDS011;58588;48.102;19.682;2022-09-04T17:09:42;7.95;;;2.80;;
70929;SDS011;58588;48.102;19.682;2022-09-04T17:12:51;8.83;;;2.97;;
70929;SDS011;58588;48.102;19.682;2022-09-04T17:16:00;7.30;;;2.75;;
70929;SDS011;58588;48.102;19.682;2022-09-04T17:19:10;8.75;;;2.95;;
70929;SDS011;58588;48.102;19.682;2022-09-04T17:22:16;7.88;;;2.90;;
70929;SDS011;58588;48.102;19.682;2022-09-04T17:25:33;7.72;;;2.70;;
70929;SDS011;58588;48.102;19.682;2022-09-04T17:28:44;6.53;;;3.10;;
70929;SDS011;58588;48.102;19.682;2022-09-04T17:31:52;7.07;;;3.00;;
70929;SDS011;58588;48.102;19.682;2022-09-04T17:35:00;6.72;;;3.10;;
70929;SDS011;58588;48.102;19.682;2022-09-04T17:38:16;6.80;;;2.88;;
70929;SDS011;58588;48.102;19.682;2022-09-04T17:41:26;8.68;;;3.05;;
70929;SDS011;58588;48.102;19.682;2022-09-04T17:44:36;6.13;;;3.10;;
70929;SDS011;58588;48.102;19.682;2022-09-04T17:47:45;6.57;;;2.90;;
70929;SDS011;58588;48.102;19.682;2022-09-04T17:50:48;6.60;;;3.28;;
70929;SDS011;58588;48.102;19.682;2022-09-04T17:53:54;8.68;;;3.47;;
70929;SDS011;58588;48.102;19.682;2022-09-04T17:56:59;7.15;;;3.08;;
70929;SDS011;58588;48.102;19.682;2022-09-04T18:00:07;8.97;;;3.67;;
70929;SDS011;58588;48.102;19.682;2022-09-04T18:03:22;7.28;;;3.30;;
70929;SDS011;58588;48.102;19.682;2022-09-04T18:06:34;8.63;;;3.65;;
70929;SDS011;58588;48.102;19.682;2022-09-04T18:09:40;7.78;;;3.47;;
70929;SDS011;58588;48.102;19.682;2022-09-04T18:12:50;7.72;;;3.70;;
70929;SDS011;58588;48.102;19.682;2022-09-04T18:16:07;8.67;;;3.43;;
70929;SDS011;58588;48.102;19.682;2022-09-04T18:19:20;11.20;;;3.30;;
70929;SDS011;58588;48.102;19.682;2022-09-04T18:22:27;8.65;;;3.17;;
70929;SDS011;58588;48.102;19.682;2022-09-04T18:25:32;9.75;;;3.45;;
70929;SDS011;58588;48.102;19.682;2022-09-04T18:28:42;7.72;;;3.50;;
70929;SDS011;58588;48.102;19.682;2022-09-04T18:31:52;7.63;;;3.60;;
70929;SDS011;58588;48.102;19.682;2022-09-04T18:34:58;9.35;;;3.53;;
70929;SDS011;58588;48.102;19.682;2022-09-04T18:38:08;8.50;;;3.38;;
70929;SDS011;58588;48.102;19.682;2022-09-04T18:41:18;9.27;;;3.72;;
70929;SDS011;58588;48.102;19.682;2022-09-04T18:44:24;8.48;;;3.70;;
70929;SDS011;58588;48.102;19.682;2022-09-04T18:47:37;8.97;;;3.50;;
70929;SDS011;58588;48.102;19.682;2022-09-04T18:50:44;8.73;;;3.72;;
70929;SDS011;58588;48.102;19.682;2022-09-04T18:53:55;7.10;;;3.75;;
70929;SDS011;58588;48.102;19.682;2022-09-04T18:57:02;7.00;;;3.55;;
70929;SDS011;58588;48.102;19.682;2022-09-04T19:00:20;7.75;;;3.78;;
70929;SDS011;58588;48.102;19.682;2022-09-04T19:03:26;8.40;;;3.50;;
70929;SDS011;58588;48.102;19.682;2022-09-04T19:06:37;7.07;;;3.45;;
70929;SDS011;58588;48.102;19.682;2022-09-04T19:09:58;8.85;;;3.95;;
70929;SDS011;58588;48.102;19.682;2022-09-04T19:13:08;8.27;;;3.72;;
70929;SDS011;58588;48.102;19.682;2022-09-04T19:16:21;8.65;;;3.60;;
70929;SDS011;58588;48.102;19.682;2022-09-04T19:19:31;9.70;;;3.80;;
70929;SDS011;58588;48.102;19.682;2022-09-04T19:22:38;8.75;;;3.80;;
70929;SDS011;58588;48.102;19.682;2022-09-04T19:25:47;7.70;;;3.60;;
70929;SDS011;58588;48.102;19.682;2022-09-04T19:28:50;8.27;;;4.05;;
70929;SDS011;58588;48.102;19.682;2022-09-04T19:31:56;9.35;;;4.25;;
70929;SDS011;58588;48.102;19.682;2022-09-04T19:35:07;8.07;;;4.10;;
70929;SDS011;58588;48.102;19.682;2022-09-04T19:38:16;8.63;;;4.05;;
70929;SDS011;58588;48.102;19.682;2022-09-04T19:41:24;8.18;;;4.50;;
70929;SDS011;58588;48.102;19.682;2022-09-04T19:44:29;9.00;;;4.18;;
70929;SDS011;58588;48.102;19.682;2022-09-04T19:47:47;8.85;;;4.25;;
70929;SDS011;58588;48.102;19.682;2022-09-04T19:51:00;8.93;;;4.47;;
70929;SDS011;58588;48.102;19.682;2022-09-04T19:54:05;9.10;;;4.65;;
70929;SDS011;58588;48.102;19.682;2022-09-04T19:57:21;7.90;;;4.22;;
70929;SDS011;58588;48.102;19.682;2022-09-04T20:00:27;8.68;;;3.97;;
70929;SDS011;58588;48.102;19.682;2022-09-04T20:03:31;8.15;;;4.15;;
70929;SDS011;58588;48.102;19.682;2022-09-04T20:06:44;11.57;;;4.40;;
70929;SDS011;58588;48.102;19.682;2022-09-04T20:09:48;11.63;;;4.00;;
70929;SDS011;58588;48.102;19.682;2022-09-04T20:12:54;8.18;;;4.50;;
70929;SDS011;58588;48.102;19.682;2022-09-04T20:16:05;10.38;;;4.50;;
70929;SDS011;58588;48.102;19.682;2022-09-04T20:19:19;8.63;;;4.35;;
70929;SDS011;58588;48.102;19.682;2022-09-04T20:22:27;8.07;;;4.30;;
70929;SDS011;58588;48.102;19.682;2022-09-04T20:25:37;8.35;;;4.03;;
70929;SDS011;58588;48.102;19.682;2022-09-04T20:28:48;8.82;;;4.43;;
70929;SDS011;58588;48.102;19.682;2022-09-04T20:31:58;8.23;;;4.30;;
70929;SDS011;58588;48.102;19.682;2022-09-04T20:35:15;9.43;;;4.30;;
70929;SDS011;58588;48.102;19.682;2022-09-04T20:38:25;7.40;;;4.30;;
70929;SDS011;58588;48.102;19.682;2022-09-04T20:41:41;9.57;;;4.38;;
70929;SDS011;58588;48.102;19.682;2022-09-04T20:44:47;7.70;;;4.20;;
70929;SDS011;58588;48.102;19.682;2022-09-04T20:47:53;8.32;;;4.20;;
70929;SDS011;58588;48.102;19.682;2022-09-04T20:51:11;8.30;;;4.22;;